createdAt,value
2022-11-21T00:09:20.647Z,99173.53
2022-11-21T00:19:21.823Z,99177.84
2022-11-21T00:29:22.954Z,99185.38
2022-11-21T00:39:24.074Z,99198.16
2022-11-21T00:49:25.210Z,99192.75
2022-11-21T00:59:26.360Z,99210.91
2022-11-21T01:09:28.487Z,99205.50
2022-11-21T01:19:29.692Z,99217.25
2022-11-21T01:29:31.002Z,99229.81
2022-11-21T01:39:32.270Z,99231.16
2022-11-21T01:49:33.476Z,99232.31
2022-11-21T01:59:34.606Z,99218.56
2022-11-21T02:09:35.806Z,99232.69
2022-11-21T02:19:36.943Z,99238.34
2022-11-21T02:29:38.140Z,99246.41
2022-11-21T02:39:39.349Z,99252.25
2022-11-21T02:49:40.506Z,99245.97
2022-11-21T02:59:41.695Z,99246.31
2022-11-21T03:09:42.944Z,99244.72
2022-11-21T03:19:44.121Z,99252.00
2022-11-21T03:29:45.250Z,99237.25
2022-11-21T03:39:46.420Z,99247.56
2022-11-21T03:49:47.542Z,99257.97
2022-11-21T03:59:48.709Z,99260.81
2022-11-21T04:09:49.872Z,99262.78
2022-11-21T04:19:51.041Z,99259.47
2022-11-21T04:29:52.213Z,99271.00
2022-11-21T04:39:53.378Z,99273.75
2022-11-21T04:49:54.531Z,99259.34
2022-11-21T04:59:55.733Z,99244.25
2022-11-21T05:09:56.912Z,99252.50
2022-11-21T05:19:58.067Z,99245.28
2022-11-21T05:29:59.251Z,99237.16
2022-11-21T05:40:00.547Z,99236.50
2022-11-21T05:50:01.705Z,99256.44
2022-11-21T06:00:02.919Z,99246.03
2022-11-21T06:10:04.099Z,99249.72
2022-11-21T06:20:05.227Z,99244.19
2022-11-21T06:30:07.124Z,99227.59
2022-11-21T06:40:08.287Z,99228.84
2022-11-21T06:50:09.517Z,99224.69
2022-11-21T07:00:11.013Z,99242.94
2022-11-21T07:10:12.245Z,99237.16
2022-11-21T07:20:13.549Z,99235.47
2022-11-21T07:30:14.671Z,99229.19
2022-11-21T07:40:15.986Z,99229.94
2022-11-21T07:50:17.154Z,99230.84
2022-11-21T08:00:18.312Z,99232.00
2022-11-21T08:10:19.469Z,99227.56
2022-11-21T08:20:20.634Z,99201.56
2022-11-21T08:30:21.846Z,99203.81
2022-11-21T08:40:23.003Z,99217.69
2022-11-21T08:50:24.377Z,99209.78
2022-11-21T09:00:25.627Z,99213.16
2022-11-21T09:10:26.872Z,99201.78
2022-11-21T09:20:28.103Z,99196.19
2022-11-21T09:30:29.339Z,99178.03
2022-11-21T09:40:30.968Z,99176.41
2022-11-21T09:50:32.166Z,99155.78
2022-11-21T10:00:33.452Z,99165.41
2022-11-21T10:10:34.859Z,99151.63
2022-11-21T10:20:36.162Z,99138.38
2022-11-21T10:30:37.400Z,99128.09
2022-11-21T10:40:38.653Z,99106.16
2022-11-21T10:50:39.854Z,99088.69
2022-11-21T11:00:41.097Z,99071.31
2022-11-21T11:10:42.410Z,99062.16
2022-11-21T11:20:43.857Z,99039.88
2022-11-21T11:30:45.008Z,99016.63
2022-11-21T11:40:46.333Z,98996.88
2022-11-21T11:50:47.573Z,98973.97
2022-11-21T12:00:48.814Z,98963.94
2022-11-21T12:11:08.650Z,98951.81
2022-11-21T12:21:09.924Z,98931.03
2022-11-21T12:31:11.057Z,98927.66
2022-11-21T12:41:32.205Z,98899.47
2022-11-21T12:51:52.113Z,98884.09
2022-11-21T13:01:53.307Z,98877.75
2022-11-21T13:12:00.418Z,98866.63
2022-11-21T13:22:01.609Z,98851.13
2022-11-21T13:32:02.747Z,98838.66
2022-11-21T13:42:22.713Z,98812.03
2022-11-21T13:52:23.905Z,98783.41
2022-11-21T14:02:25.101Z,98771.59
2022-11-21T14:12:32.681Z,98743.91
2022-11-21T14:22:37.044Z,98732.84
2022-11-21T14:32:41.402Z,98712.66
2022-11-21T14:42:42.590Z,98705.56
2022-11-21T14:52:43.778Z,98681.72
2022-11-21T15:02:44.976Z,98635.41
2022-11-21T15:12:46.261Z,98624.44
2022-11-21T15:22:48.135Z,98590.16
2022-11-21T15:32:49.362Z,98576.31
2022-11-21T15:42:50.498Z,98563.34
2022-11-21T15:52:51.766Z,98565.91
2022-11-21T16:02:53.024Z,98541.97
2022-11-21T16:12:54.163Z,98516.69
2022-11-21T16:22:55.386Z,98513.19
2022-11-21T16:32:56.601Z,98500.63
2022-11-21T16:42:57.771Z,98490.22
2022-11-21T16:52:58.974Z,98465.75
2022-11-21T17:03:00.209Z,98420.19
2022-11-21T17:13:01.391Z,98403.97
2022-11-21T17:23:03.169Z,98386.00
2022-11-21T17:28:20.862Z,98368.06
2022-11-21T17:33:22.079Z,98388.16
2022-11-21T17:38:23.602Z,98385.09
2022-11-21T17:43:24.751Z,98387.25
2022-11-21T17:48:25.876Z,98389.34
2022-11-21T17:53:26.994Z,98379.09
2022-11-21T17:58:28.140Z,98385.22
2022-11-21T18:03:29.748Z,98380.44
2022-11-21T18:08:30.993Z,98394.38
2022-11-21T18:13:32.232Z,98383.94
2022-11-21T18:18:33.408Z,98396.22
2022-11-21T18:23:34.576Z,98389.31
2022-11-21T18:28:35.776Z,98398.38
2022-11-21T18:33:36.967Z,98395.63
2022-11-21T18:38:49.230Z,98374.16
2022-11-21T18:43:52.546Z,98362.41
2022-11-21T18:49:04.692Z,98372.97
2022-11-21T18:54:08.040Z,98355.50
2022-11-21T18:59:09.731Z,98345.56
2022-11-21T19:04:11.052Z,98327.00
2022-11-21T19:09:12.309Z,98323.50
2022-11-21T19:14:13.600Z,98306.34
2022-11-21T19:24:36.605Z,98303.63
2022-11-21T19:29:39.420Z,98290.91
2022-11-21T19:34:40.628Z,98279.38
2022-11-21T19:39:41.909Z,98267.91
2022-11-21T19:44:43.117Z,98268.66
2022-11-21T19:49:44.272Z,98262.09
2022-11-21T19:54:45.558Z,98255.47
2022-11-21T19:59:47.133Z,98244.91
2022-11-21T20:04:48.579Z,98242.00
2022-11-21T20:09:49.802Z,98231.25
2022-11-21T20:14:53.537Z,98236.91
2022-11-21T20:19:54.737Z,98220.22
2022-11-21T20:24:56.025Z,98213.63
2022-11-21T20:29:57.237Z,98193.69
2022-11-21T20:40:17.486Z,98160.13
2022-11-21T20:46:07.204Z,98152.31
2022-11-21T20:51:39.580Z,98146.66
2022-11-21T20:56:01.230Z,98152.31
2022-11-21T21:01:02.413Z,98153.53
2022-11-21T21:06:06.937Z,98152.91
2022-11-21T21:11:20.728Z,98147.38
2022-11-21T21:16:30.394Z,98146.63
2022-11-21T21:21:31.633Z,98134.34
2022-11-21T21:26:35.827Z,98145.56
2022-11-21T21:31:43.916Z,98145.38
2022-11-21T21:36:48.301Z,98131.78
2022-11-21T21:41:49.597Z,98130.56
2022-11-21T21:46:50.870Z,98127.47
2022-11-21T21:51:51.990Z,98129.34
2022-11-21T21:56:53.181Z,98131.63
2022-11-21T22:01:54.383Z,98108.63
2022-11-21T22:06:55.595Z,98114.47
2022-11-21T22:11:56.748Z,98116.09
2022-11-21T22:16:57.907Z,98119.63
2022-11-21T22:21:59.083Z,98112.25
2022-11-21T22:27:00.290Z,98116.38
2022-11-21T22:32:01.560Z,98111.81
2022-11-21T22:37:02.766Z,98111.34
2022-11-21T22:42:03.935Z,98098.66
2022-11-21T22:47:05.149Z,98089.72
2022-11-21T22:52:06.390Z,98090.50
2022-11-21T22:57:07.574Z,98082.84
2022-11-21T23:02:08.885Z,98083.50
2022-11-21T23:07:10.177Z,98080.41
2022-11-21T23:12:11.372Z,98084.88
2022-11-21T23:17:12.557Z,98080.41
2022-11-21T23:22:13.726Z,98085.19
2022-11-21T23:27:14.952Z,98088.53
2022-11-21T23:32:17.025Z,98082.56
2022-11-21T23:37:18.209Z,98074.31
2022-11-21T23:42:19.372Z,98078.63
2022-11-21T23:47:20.489Z,98083.66
2022-11-21T23:52:21.637Z,98085.06
2022-11-21T23:57:22.772Z,98075.72
